sensor_id;sensor_type;location;lat;lon;timestamp;temperature;humidity
55207;DHT22;41079;52.856;6.534;2022-09-30T00:01:31;7.90;99.90
55207;DHT22;41079;52.856;6.534;2022-09-30T00:03:57;7.80;99.90
55207;DHT22;41079;52.856;6.534;2022-09-30T00:06:27;7.80;99.90
55207;DHT22;41079;52.856;6.534;2022-09-30T00:08:54;7.80;99.90
55207;DHT22;41079;52.856;6.534;2022-09-30T00:11:28;7.80;99.90
55207;DHT22;41079;52.856;6.534;2022-09-30T00:13:55;7.80;99.90
55207;DHT22;41079;52.856;6.534;2022-09-30T00:16:23;7.80;99.90
55207;DHT22;41079;52.856;6.534;2022-09-30T00:18:49;7.90;99.90
55207;DHT22;41079;52.856;6.534;2022-09-30T00:21:16;7.90;99.90
55207;DHT22;41079;52.856;6.534;2022-09-30T00:23:42;7.90;99.90
55207;DHT22;41079;52.856;6.534;2022-09-30T00:26:13;7.80;99.90
55207;DHT22;41079;52.856;6.534;2022-09-30T00:28:40;7.70;99.90
55207;DHT22;41079;52.856;6.534;2022-09-30T00:31:10;7.70;99.90
55207;DHT22;41079;52.856;6.534;2022-09-30T00:33:36;7.70;99.90
55207;DHT22;41079;52.856;6.534;2022-09-30T00:36:02;7.60;99.90
55207;DHT22;41079;52.856;6.534;2022-09-30T00:38:28;7.60;99.90
55207;DHT22;41079;52.856;6.534;2022-09-30T00:40:54;7.50;99.90
55207;DHT22;41079;52.856;6.534;2022-09-30T00:43:41;7.60;99.90
55207;DHT22;41079;52.856;6.534;2022-09-30T00:48:51;7.60;99.90
55207;DHT22;41079;52.856;6.534;2022-09-30T00:51:25;7.60;99.90
55207;DHT22;41079;52.856;6.534;2022-09-30T00:53:54;7.60;99.90
55207;DHT22;41079;52.856;6.534;2022-09-30T00:56:24;7.50;99.90
55207;DHT22;41079;52.856;6.534;2022-09-30T00:58:55;7.50;99.90
55207;DHT22;41079;52.856;6.534;2022-09-30T01:01:24;7.50;99.90
55207;DHT22;41079;52.856;6.534;2022-09-30T01:04:01;7.40;99.90
55207;DHT22;41079;52.856;6.534;2022-09-30T01:06:27;7.40;99.90
55207;DHT22;41079;52.856;6.534;2022-09-30T01:08:53;7.40;99.90
55207;DHT22;41079;52.856;6.534;2022-09-30T01:11:20;7.30;99.90
55207;DHT22;41079;52.856;6.534;2022-09-30T01:13:48;7.30;99.90
55207;DHT22;41079;52.856;6.534;2022-09-30T01:19:49;7.20;99.90
55207;DHT22;41079;52.856;6.534;2022-09-30T01:30:47;7.10;99.90
55207;DHT22;41079;52.856;6.534;2022-09-30T01:39:12;7.00;99.90
55207;DHT22;41079;52.856;6.534;2022-09-30T01:44:51;6.90;99.90
55207;DHT22;41079;52.856;6.534;2022-09-30T01:47:28;6.90;99.90
55207;DHT22;41079;52.856;6.534;2022-09-30T01:50:05;6.80;99.90
55207;DHT22;41079;52.856;6.534;2022-09-30T02:01:05;6.50;99.90
55207;DHT22;41079;52.856;6.534;2022-09-30T02:03:40;6.50;99.90
55207;DHT22;41079;52.856;6.534;2022-09-30T02:06:17;6.30;99.90
55207;DHT22;41079;52.856;6.534;2022-09-30T02:08:49;6.30;99.90
55207;DHT22;41079;52.856;6.534;2022-09-30T02:11:20;6.30;99.90
55207;DHT22;41079;52.856;6.534;2022-09-30T02:13:59;6.30;99.90
55207;DHT22;41079;52.856;6.534;2022-09-30T02:16:37;6.30;99.90
55207;DHT22;41079;52.856;6.534;2022-09-30T02:19:19;6.30;99.90
55207;DHT22;41079;52.856;6.534;2022-09-30T02:22:00;6.20;99.90
55207;DHT22;41079;52.856;6.534;2022-09-30T02:24:31;6.10;99.90
55207;DHT22;41079;52.856;6.534;2022-09-30T02:29:44;5.90;99.90
55207;DHT22;41079;52.856;6.534;2022-09-30T02:32:23;5.90;99.90
55207;DHT22;41079;52.856;6.534;2022-09-30T02:34:53;5.90;99.90
55207;DHT22;41079;52.856;6.534;2022-09-30T02:37:26;5.80;99.90
55207;DHT22;41079;52.856;6.534;2022-09-30T02:39:57;5.70;99.90
55207;DHT22;41079;52.856;6.534;2022-09-30T02:42:26;5.70;99.90
55207;DHT22;41079;52.856;6.534;2022-09-30T02:45:01;5.70;99.90
55207;DHT22;41079;52.856;6.534;2022-09-30T02:47:32;5.80;99.90
55207;DHT22;41079;52.856;6.534;2022-09-30T02:50:11;5.80;99.90
55207;DHT22;41079;52.856;6.534;2022-09-30T02:52:57;5.70;99.90
55207;DHT22;41079;52.856;6.534;2022-09-30T02:55:27;5.70;99.90
55207;DHT22;41079;52.856;6.534;2022-09-30T02:58:04;5.70;99.90
55207;DHT22;41079;52.856;6.534;2022-09-30T03:00:33;5.70;99.90
55207;DHT22;41079;52.856;6.534;2022-09-30T03:03:04;5.60;99.90
55207;DHT22;41079;52.856;6.534;2022-09-30T03:05:30;5.60;99.90
55207;DHT22;41079;52.856;6.534;2022-09-30T03:07:55;5.60;99.90
55207;DHT22;41079;52.856;6.534;2022-09-30T03:10:22;5.60;99.90
55207;DHT22;41079;52.856;6.534;2022-09-30T03:15:58;5.60;99.90
55207;DHT22;41079;52.856;6.534;2022-09-30T03:29:44;5.60;99.90
55207;DHT22;41079;52.856;6.534;2022-09-30T03:38:12;5.40;99.90
55207;DHT22;41079;52.856;6.534;2022-09-30T03:40:53;5.40;99.90
55207;DHT22;41079;52.856;6.534;2022-09-30T03:43:30;5.50;99.90
55207;DHT22;41079;52.856;6.534;2022-09-30T03:48:31;5.40;99.90
55207;DHT22;41079;52.856;6.534;2022-09-30T03:50:58;5.40;99.90
55207;DHT22;41079;52.856;6.534;2022-09-30T03:53:24;5.50;99.90
55207;DHT22;41079;52.856;6.534;2022-09-30T03:55:52;5.50;99.90
55207;DHT22;41079;52.856;6.534;2022-09-30T03:58:20;5.50;99.90
55207;DHT22;41079;52.856;6.534;2022-09-30T04:00:50;5.40;99.90
55207;DHT22;41079;52.856;6.534;2022-09-30T04:03:17;5.40;99.90
55207;DHT22;41079;52.856;6.534;2022-09-30T04:05:44;5.40;99.90
55207;DHT22;41079;52.856;6.534;2022-09-30T04:08:10;5.30;99.90
55207;DHT22;41079;52.856;6.534;2022-09-30T04:10:41;5.20;99.90
55207;DHT22;41079;52.856;6.534;2022-09-30T04:13:08;5.30;99.90
55207;DHT22;41079;52.856;6.534;2022-09-30T04:15:35;5.30;99.90
55207;DHT22;41079;52.856;6.534;2022-09-30T04:18:01;5.30;99.90
55207;DHT22;41079;52.856;6.534;2022-09-30T04:20:28;5.30;99.90
55207;DHT22;41079;52.856;6.534;2022-09-30T04:22:56;5.30;99.90
55207;DHT22;41079;52.856;6.534;2022-09-30T04:25:22;5.30;99.90
55207;DHT22;41079;52.856;6.534;2022-09-30T04:27:48;5.40;99.90
55207;DHT22;41079;52.856;6.534;2022-09-30T04:30:13;5.30;99.90
55207;DHT22;41079;52.856;6.534;2022-09-30T04:32:42;5.30;99.90
55207;DHT22;41079;52.856;6.534;2022-09-30T04:35:13;5.20;99.90
55207;DHT22;41079;52.856;6.534;2022-09-30T04:37:43;5.30;99.90
55207;DHT22;41079;52.856;6.534;2022-09-30T04:40:09;5.20;99.90
55207;DHT22;41079;52.856;6.534;2022-09-30T04:42:36;5.20;99.90
55207;DHT22;41079;52.856;6.534;2022-09-30T04:45:02;5.20;99.90
55207;DHT22;41079;52.856;6.534;2022-09-30T04:47:28;5.20;99.90
55207;DHT22;41079;52.856;6.534;2022-09-30T04:49:54;5.20;99.90
55207;DHT22;41079;52.856;6.534;2022-09-30T04:52:20;5.10;99.90
55207;DHT22;41079;52.856;6.534;2022-09-30T04:54:46;5.10;99.90
55207;DHT22;41079;52.856;6.534;2022-09-30T04:57:11;5.10;99.90
55207;DHT22;41079;52.856;6.534;2022-09-30T04:59:38;5.20;99.90
55207;DHT22;41079;52.856;6.534;2022-09-30T05:02:04;5.20;99.90
55207;DHT22;41079;52.856;6.534;2022-09-30T05:04:29;5.30;99.90
55207;DHT22;41079;52.856;6.534;2022-09-30T05:06:58;5.30;99.90
55207;DHT22;41079;52.856;6.534;2022-09-30T05:09:25;5.30;99.90
55207;DHT22;41079;52.856;6.534;2022-09-30T05:11:50;5.30;99.90
55207;DHT22;41079;52.856;6.534;2022-09-30T05:14:16;5.30;99.90
55207;DHT22;41079;52.856;6.534;2022-09-30T05:16:42;5.20;99.90
55207;DHT22;41079;52.856;6.534;2022-09-30T05:19:07;5.20;99.90
55207;DHT22;41079;52.856;6.534;2022-09-30T05:21:33;5.20;99.90
55207;DHT22;41079;52.856;6.534;2022-09-30T05:24:00;5.20;99.90
55207;DHT22;41079;52.856;6.534;2022-09-30T05:26:26;5.10;99.90
55207;DHT22;41079;52.856;6.534;2022-09-30T05:28:51;5.10;99.90
55207;DHT22;41079;52.856;6.534;2022-09-30T05:31:17;4.90;99.90
55207;DHT22;41079;52.856;6.534;2022-09-30T05:33:45;4.80;99.90
55207;DHT22;41079;52.856;6.534;2022-09-30T05:36:13;4.60;99.90
55207;DHT22;41079;52.856;6.534;2022-09-30T05:38:39;4.60;99.90
55207;DHT22;41079;52.856;6.534;2022-09-30T05:41:06;4.60;99.90
55207;DHT22;41079;52.856;6.534;2022-09-30T05:43:33;4.60;99.90
55207;DHT22;41079;52.856;6.534;2022-09-30T05:45:58;4.70;99.90
55207;DHT22;41079;52.856;6.534;2022-09-30T05:48:24;4.70;99.90
55207;DHT22;41079;52.856;6.534;2022-09-30T05:50:58;4.70;99.90
55207;DHT22;41079;52.856;6.534;2022-09-30T05:53:26;4.80;99.90
55207;DHT22;41079;52.856;6.534;2022-09-30T05:55:52;4.70;99.90
55207;DHT22;41079;52.856;6.534;2022-09-30T05:58:18;4.70;99.90
55207;DHT22;41079;52.856;6.534;2022-09-30T06:00:45;4.60;99.90
55207;DHT22;41079;52.856;6.534;2022-09-30T06:03:11;4.60;99.90
55207;DHT22;41079;52.856;6.534;2022-09-30T06:05:38;4.60;99.90
55207;DHT22;41079;52.856;6.534;2022-09-30T06:08:04;4.70;99.90
55207;DHT22;41079;52.856;6.534;2022-09-30T06:10:31;4.80;99.90
55207;DHT22;41079;52.856;6.534;2022-09-30T06:12:57;4.90;99.90
55207;DHT22;41079;52.856;6.534;2022-09-30T06:15:24;4.90;99.90
55207;DHT22;41079;52.856;6.534;2022-09-30T06:17:53;4.90;99.90
55207;DHT22;41079;52.856;6.534;2022-09-30T06:20:19;4.80;99.90
55207;DHT22;41079;52.856;6.534;2022-09-30T06:22:44;4.90;99.90
55207;DHT22;41079;52.856;6.534;2022-09-30T06:25:10;5.20;99.90
55207;DHT22;41079;52.856;6.534;2022-09-30T06:27:36;5.40;99.90
55207;DHT22;41079;52.856;6.534;2022-09-30T06:30:04;5.70;99.90
55207;DHT22;41079;52.856;6.534;2022-09-30T06:32:30;5.80;99.90
55207;DHT22;41079;52.856;6.534;2022-09-30T06:34:55;6.00;99.90
55207;DHT22;41079;52.856;6.534;2022-09-30T06:37:21;6.20;99.90
55207;DHT22;41079;52.856;6.534;2022-09-30T06:39:48;6.40;99.90
55207;DHT22;41079;52.856;6.534;2022-09-30T06:42:15;6.50;99.90
55207;DHT22;41079;52.856;6.534;2022-09-30T06:44:41;6.60;99.90
55207;DHT22;41079;52.856;6.534;2022-09-30T06:47:06;6.70;99.90
55207;DHT22;41079;52.856;6.534;2022-09-30T06:49:33;6.90;99.90
55207;DHT22;41079;52.856;6.534;2022-09-30T06:51:59;7.10;99.90
55207;DHT22;41079;52.856;6.534;2022-09-30T06:54:26;7.20;99.90
55207;DHT22;41079;52.856;6.534;2022-09-30T06:56:55;7.30;99.90
55207;DHT22;41079;52.856;6.534;2022-09-30T06:59:23;7.40;99.90
55207;DHT22;41079;52.856;6.534;2022-09-30T07:01:49;7.60;99.90
55207;DHT22;41079;52.856;6.534;2022-09-30T07:04:14;7.70;99.90
55207;DHT22;41079;52.856;6.534;2022-09-30T07:06:40;7.80;99.90
55207;DHT22;41079;52.856;6.534;2022-09-30T07:09:07;8.00;99.90
55207;DHT22;41079;52.856;6.534;2022-09-30T07:11:33;8.10;99.90
55207;DHT22;41079;52.856;6.534;2022-09-30T07:13:59;8.20;99.90
55207;DHT22;41079;52.856;6.534;2022-09-30T07:16:24;8.20;99.90
55207;DHT22;41079;52.856;6.534;2022-09-30T07:18:50;8.20;99.90
55207;DHT22;41079;52.856;6.534;2022-09-30T07:21:16;8.30;99.90
55207;DHT22;41079;52.856;6.534;2022-09-30T07:23:43;8.50;99.90
55207;DHT22;41079;52.856;6.534;2022-09-30T07:26:17;8.60;99.90
55207;DHT22;41079;52.856;6.534;2022-09-30T07:28:44;8.80;99.90
55207;DHT22;41079;52.856;6.534;2022-09-30T07:31:16;8.90;99.90
55207;DHT22;41079;52.856;6.534;2022-09-30T07:33:43;9.10;99.90
55207;DHT22;41079;52.856;6.534;2022-09-30T07:36:09;9.20;99.90
55207;DHT22;41079;52.856;6.534;2022-09-30T07:38:38;9.20;99.90
55207;DHT22;41079;52.856;6.534;2022-09-30T07:41:14;9.30;99.90
55207;DHT22;41079;52.856;6.534;2022-09-30T07:43:43;9.30;99.90
55207;DHT22;41079;52.856;6.534;2022-09-30T07:46:11;9.40;99.90
55207;DHT22;41079;52.856;6.534;2022-09-30T07:48:39;9.40;99.90
55207;DHT22;41079;52.856;6.534;2022-09-30T07:51:33;9.50;99.90
55207;DHT22;41079;52.856;6.534;2022-09-30T07:54:05;9.60;99.90
55207;DHT22;41079;52.856;6.534;2022-09-30T07:56:31;9.70;99.90
55207;DHT22;41079;52.856;6.534;2022-09-30T07:59:00;9.70;99.90
55207;DHT22;41079;52.856;6.534;2022-09-30T08:01:27;9.80;99.90
55207;DHT22;41079;52.856;6.534;2022-09-30T08:03:55;10.00;99.90
55207;DHT22;41079;52.856;6.534;2022-09-30T08:06:21;10.20;99.90
55207;DHT22;41079;52.856;6.534;2022-09-30T08:08:50;10.30;99.90
55207;DHT22;41079;52.856;6.534;2022-09-30T08:11:16;10.50;99.90
55207;DHT22;41079;52.856;6.534;2022-09-30T08:13:42;10.70;99.90
55207;DHT22;41079;52.856;6.534;2022-09-30T08:16:07;10.90;99.90
55207;DHT22;41079;52.856;6.534;2022-09-30T08:18:33;11.10;99.90
55207;DHT22;41079;52.856;6.534;2022-09-30T08:21:05;11.30;99.90
55207;DHT22;41079;52.856;6.534;2022-09-30T08:23:32;11.50;99.90
55207;DHT22;41079;52.856;6.534;2022-09-30T08:26:03;11.70;99.90
55207;DHT22;41079;52.856;6.534;2022-09-30T08:47:00;13.00;99.90
55207;DHT22;41079;52.856;6.534;2022-09-30T08:51:59;13.40;99.90
55207;DHT22;41079;52.856;6.534;2022-09-30T08:54:30;13.60;99.90
55207;DHT22;41079;52.856;6.534;2022-09-30T08:56:58;13.80;99.90
55207;DHT22;41079;52.856;6.534;2022-09-30T08:59:37;13.90;99.90
55207;DHT22;41079;52.856;6.534;2022-09-30T09:02:22;14.10;99.90
55207;DHT22;41079;52.856;6.534;2022-09-30T09:04:49;14.40;99.90
55207;DHT22;41079;52.856;6.534;2022-09-30T09:13:31;14.70;99.90
55207;DHT22;41079;52.856;6.534;2022-09-30T09:24:26;15.20;99.90
55207;DHT22;41079;52.856;6.534;2022-09-30T09:26:53;15.10;99.90
55207;DHT22;41079;52.856;6.534;2022-09-30T09:29:23;15.10;99.90
55207;DHT22;41079;52.856;6.534;2022-09-30T09:31:53;15.20;99.90
55207;DHT22;41079;52.856;6.534;2022-09-30T09:34:18;15.20;99.90
55207;DHT22;41079;52.856;6.534;2022-09-30T09:40:08;15.70;99.90
55207;DHT22;41079;52.856;6.534;2022-09-30T09:42:59;16.00;99.90
55207;DHT22;41079;52.856;6.534;2022-09-30T09:45:41;16.10;99.90
55207;DHT22;41079;52.856;6.534;2022-09-30T09:48:12;16.30;99.90
55207;DHT22;41079;52.856;6.534;2022-09-30T09:50:45;16.30;99.90
55207;DHT22;41079;52.856;6.534;2022-09-30T09:53:19;16.40;99.90
55207;DHT22;41079;52.856;6.534;2022-09-30T09:55:48;16.40;99.90
55207;DHT22;41079;52.856;6.534;2022-09-30T09:58:15;16.40;99.90
55207;DHT22;41079;52.856;6.534;2022-09-30T10:01:16;16.40;99.90
55207;DHT22;41079;52.856;6.534;2022-09-30T10:07:17;16.50;99.90
55207;DHT22;41079;52.856;6.534;2022-09-30T10:09:46;16.50;99.90
55207;DHT22;41079;52.856;6.534;2022-09-30T10:12:30;16.50;99.90
55207;DHT22;41079;52.856;6.534;2022-09-30T10:21:25;16.90;99.90
55207;DHT22;41079;52.856;6.534;2022-09-30T10:24:29;17.10;99.90
55207;DHT22;41079;52.856;6.534;2022-09-30T10:27:00;17.10;99.90
55207;DHT22;41079;52.856;6.534;2022-09-30T10:29:46;17.10;99.90
55207;DHT22;41079;52.856;6.534;2022-09-30T10:32:14;17.00;99.90
55207;DHT22;41079;52.856;6.534;2022-09-30T10:34:41;17.00;99.90
55207;DHT22;41079;52.856;6.534;2022-09-30T10:37:13;17.00;99.90
55207;DHT22;41079;52.856;6.534;2022-09-30T10:39:43;17.20;99.90
55207;DHT22;41079;52.856;6.534;2022-09-30T10:42:31;17.40;99.90
55207;DHT22;41079;52.856;6.534;2022-09-30T10:45:19;17.70;99.90
55207;DHT22;41079;52.856;6.534;2022-09-30T10:47:50;17.90;99.90
55207;DHT22;41079;52.856;6.534;2022-09-30T10:50:25;17.90;99.90
55207;DHT22;41079;52.856;6.534;2022-09-30T10:53:12;18.00;99.90
55207;DHT22;41079;52.856;6.534;2022-09-30T10:55:52;18.20;99.90
55207;DHT22;41079;52.856;6.534;2022-09-30T10:58:47;18.30;99.90
55207;DHT22;41079;52.856;6.534;2022-09-30T11:01:29;18.40;99.90
55207;DHT22;41079;52.856;6.534;2022-09-30T11:04:26;18.40;99.90
55207;DHT22;41079;52.856;6.534;2022-09-30T11:07:00;18.70;99.90
55207;DHT22;41079;52.856;6.534;2022-09-30T11:09:38;18.80;99.90
55207;DHT22;41079;52.856;6.534;2022-09-30T11:15:19;18.80;99.90
55207;DHT22;41079;52.856;6.534;2022-09-30T11:20:24;18.90;99.90
55207;DHT22;41079;52.856;6.534;2022-09-30T11:23:15;18.70;95.30
55207;DHT22;41079;52.856;6.534;2022-09-30T11:25:59;18.40;95.10
55207;DHT22;41079;52.856;6.534;2022-09-30T11:31:27;18.30;97.20
55207;DHT22;41079;52.856;6.534;2022-09-30T11:37:32;18.60;97.20
55207;DHT22;41079;52.856;6.534;2022-09-30T11:48:34;18.60;98.90
55207;DHT22;41079;52.856;6.534;2022-09-30T11:53:45;19.20;95.10
55207;DHT22;41079;52.856;6.534;2022-09-30T11:56:37;19.20;95.10
55207;DHT22;41079;52.856;6.534;2022-09-30T11:59:06;19.10;92.40
55207;DHT22;41079;52.856;6.534;2022-09-30T12:01:42;19.40;94.50
55207;DHT22;41079;52.856;6.534;2022-09-30T12:04:18;19.40;94.90
55207;DHT22;41079;52.856;6.534;2022-09-30T12:06:52;19.00;93.40
55207;DHT22;41079;52.856;6.534;2022-09-30T12:09:30;18.60;94.70
55207;DHT22;41079;52.856;6.534;2022-09-30T12:12:06;18.10;95.20
55207;DHT22;41079;52.856;6.534;2022-09-30T12:15:20;17.80;95.60
55207;DHT22;41079;52.856;6.534;2022-09-30T12:17:28;17.70;96.00
55207;DHT22;41079;52.856;6.534;2022-09-30T12:22:52;18.60;95.40
55207;DHT22;41079;52.856;6.534;2022-09-30T12:25:24;18.80;93.10
55207;DHT22;41079;52.856;6.534;2022-09-30T12:28:04;18.90;94.50
55207;DHT22;41079;52.856;6.534;2022-09-30T12:30:59;19.00;93.90
55207;DHT22;41079;52.856;6.534;2022-09-30T12:33:37;19.20;94.40
55207;DHT22;41079;52.856;6.534;2022-09-30T12:36:22;19.40;94.60
55207;DHT22;41079;52.856;6.534;2022-09-30T12:41:53;19.20;91.80
55207;DHT22;41079;52.856;6.534;2022-09-30T12:49:46;18.60;93.80
55207;DHT22;41079;52.856;6.534;2022-09-30T12:52:18;18.80;93.80
55207;DHT22;41079;52.856;6.534;2022-09-30T12:54:54;19.00;92.40
55207;DHT22;41079;52.856;6.534;2022-09-30T12:57:29;19.00;92.50
55207;DHT22;41079;52.856;6.534;2022-09-30T12:59:59;19.00;92.00
55207;DHT22;41079;52.856;6.534;2022-09-30T13:02:38;19.20;91.80
55207;DHT22;41079;52.856;6.534;2022-09-30T13:21:15;18.10;93.90
55207;DHT22;41079;52.856;6.534;2022-09-30T13:23:47;18.10;91.60
55207;DHT22;41079;52.856;6.534;2022-09-30T13:31:26;18.10;92.50
55207;DHT22;41079;52.856;6.534;2022-09-30T13:39:45;18.50;90.40
55207;DHT22;41079;52.856;6.534;2022-09-30T13:50:54;18.10;91.50
55207;DHT22;41079;52.856;6.534;2022-09-30T13:53:31;18.00;91.40
55207;DHT22;41079;52.856;6.534;2022-09-30T13:56:03;17.80;91.20
55207;DHT22;41079;52.856;6.534;2022-09-30T14:12:48;17.70;92.10
55207;DHT22;41079;52.856;6.534;2022-09-30T14:15:23;17.80;91.90
55207;DHT22;41079;52.856;6.534;2022-09-30T14:23:23;18.20;90.90
55207;DHT22;41079;52.856;6.534;2022-09-30T14:26:00;18.10;91.50
55207;DHT22;41079;52.856;6.534;2022-09-30T14:31:03;17.80;91.40
55207;DHT22;41079;52.856;6.534;2022-09-30T14:33:37;17.50;91.80
55207;DHT22;41079;52.856;6.534;2022-09-30T14:36:11;17.50;90.90
55207;DHT22;41079;52.856;6.534;2022-09-30T14:38:37;17.60;91.30
55207;DHT22;41079;52.856;6.534;2022-09-30T14:41:06;17.60;91.50
55207;DHT22;41079;52.856;6.534;2022-09-30T14:43:41;17.60;91.70
55207;DHT22;41079;52.856;6.534;2022-09-30T14:46:25;17.40;90.50
55207;DHT22;41079;52.856;6.534;2022-09-30T14:48:56;17.40;91.20
55207;DHT22;41079;52.856;6.534;2022-09-30T14:51:24;17.30;91.50
55207;DHT22;41079;52.856;6.534;2022-09-30T14:53:54;17.20;91.50
55207;DHT22;41079;52.856;6.534;2022-09-30T14:56:27;17.20;91.90
55207;DHT22;41079;52.856;6.534;2022-09-30T14:58:55;17.10;91.90
55207;DHT22;41079;52.856;6.534;2022-09-30T15:01:23;17.10;92.30
55207;DHT22;41079;52.856;6.534;2022-09-30T15:04:10;17.20;92.40
55207;DHT22;41079;52.856;6.534;2022-09-30T15:06:40;17.20;92.60
55207;DHT22;41079;52.856;6.534;2022-09-30T15:11:39;17.40;92.40
55207;DHT22;41079;52.856;6.534;2022-09-30T15:14:20;17.40;91.90
55207;DHT22;41079;52.856;6.534;2022-09-30T15:16:56;17.50;92.10
55207;DHT22;41079;52.856;6.534;2022-09-30T15:19:23;17.50;92.00
55207;DHT22;41079;52.856;6.534;2022-09-30T15:21:50;17.40;92.10
55207;DHT22;41079;52.856;6.534;2022-09-30T15:24:18;17.30;92.00
55207;DHT22;41079;52.856;6.534;2022-09-30T15:26:45;17.10;93.00
55207;DHT22;41079;52.856;6.534;2022-09-30T15:29:15;16.90;92.90
55207;DHT22;41079;52.856;6.534;2022-09-30T15:31:49;16.70;92.90
55207;DHT22;41079;52.856;6.534;2022-09-30T15:34:19;16.60;93.50
55207;DHT22;41079;52.856;6.534;2022-09-30T15:36:47;16.40;93.60
55207;DHT22;41079;52.856;6.534;2022-09-30T15:39:25;16.30;94.30
55207;DHT22;41079;52.856;6.534;2022-09-30T15:42:30;16.10;94.70
55207;DHT22;41079;52.856;6.534;2022-09-30T15:45:04;15.90;95.50
55207;DHT22;41079;52.856;6.534;2022-09-30T15:47:57;15.80;96.00
55207;DHT22;41079;52.856;6.534;2022-09-30T15:50:42;15.70;96.60
55207;DHT22;41079;52.856;6.534;2022-09-30T15:56:22;15.60;97.60
55207;DHT22;41079;52.856;6.534;2022-09-30T15:58:56;15.60;97.60
55207;DHT22;41079;52.856;6.534;2022-09-30T16:01:24;15.60;98.10
55207;DHT22;41079;52.856;6.534;2022-09-30T16:03:55;15.50;98.50
55207;DHT22;41079;52.856;6.534;2022-09-30T16:09:35;15.40;99.20
55207;DHT22;41079;52.856;6.534;2022-09-30T16:11:42;15.40;99.50
55207;DHT22;41079;52.856;6.534;2022-09-30T16:14:21;15.30;99.90
55207;DHT22;41079;52.856;6.534;2022-09-30T16:16:59;15.30;99.90
55207;DHT22;41079;52.856;6.534;2022-09-30T16:19:27;15.20;99.90
55207;DHT22;41079;52.856;6.534;2022-09-30T16:21:54;15.20;99.90
55207;DHT22;41079;52.856;6.534;2022-09-30T16:27:14;15.00;99.90
55207;DHT22;41079;52.856;6.534;2022-09-30T16:29:44;15.00;99.90
55207;DHT22;41079;52.856;6.534;2022-09-30T16:32:11;15.00;99.90
55207;DHT22;41079;52.856;6.534;2022-09-30T16:34:39;15.00;99.90
55207;DHT22;41079;52.856;6.534;2022-09-30T16:37:12;14.90;99.90
55207;DHT22;41079;52.856;6.534;2022-09-30T16:39:39;14.80;99.90
55207;DHT22;41079;52.856;6.534;2022-09-30T16:42:05;14.70;99.90
55207;DHT22;41079;52.856;6.534;2022-09-30T16:44:30;14.70;99.90
55207;DHT22;41079;52.856;6.534;2022-09-30T16:47:03;14.60;99.90
55207;DHT22;41079;52.856;6.534;2022-09-30T16:49:29;14.50;99.90
55207;DHT22;41079;52.856;6.534;2022-09-30T16:51:54;14.40;99.90
55207;DHT22;41079;52.856;6.534;2022-09-30T16:54:20;14.40;99.90
55207;DHT22;41079;52.856;6.534;2022-09-30T16:56:45;14.30;99.90
55207;DHT22;41079;52.856;6.534;2022-09-30T16:59:12;14.30;99.90
55207;DHT22;41079;52.856;6.534;2022-09-30T17:01:38;14.20;99.90
55207;DHT22;41079;52.856;6.534;2022-09-30T17:04:04;14.10;99.90
55207;DHT22;41079;52.856;6.534;2022-09-30T17:06:31;14.10;99.90
55207;DHT22;41079;52.856;6.534;2022-09-30T17:08:57;14.00;99.90
55207;DHT22;41079;52.856;6.534;2022-09-30T17:11:25;13.90;99.90
55207;DHT22;41079;52.856;6.534;2022-09-30T17:13:52;13.80;99.90
55207;DHT22;41079;52.856;6.534;2022-09-30T17:16:18;13.70;99.90
55207;DHT22;41079;52.856;6.534;2022-09-30T17:18:43;13.60;99.90
55207;DHT22;41079;52.856;6.534;2022-09-30T17:21:09;13.50;99.90
55207;DHT22;41079;52.856;6.534;2022-09-30T17:23:35;13.40;99.90
55207;DHT22;41079;52.856;6.534;2022-09-30T17:26:05;13.40;99.90
55207;DHT22;41079;52.856;6.534;2022-09-30T17:28:30;13.30;99.90
55207;DHT22;41079;52.856;6.534;2022-09-30T17:30:59;13.20;99.90
55207;DHT22;41079;52.856;6.534;2022-09-30T17:33:29;13.20;99.90
55207;DHT22;41079;52.856;6.534;2022-09-30T17:35:59;13.10;99.90
55207;DHT22;41079;52.856;6.534;2022-09-30T17:38:26;13.10;99.90
55207;DHT22;41079;52.856;6.534;2022-09-30T17:40:52;13.00;99.90
55207;DHT22;41079;52.856;6.534;2022-09-30T17:43:36;12.90;99.90
55207;DHT22;41079;52.856;6.534;2022-09-30T17:46:02;12.90;99.90
55207;DHT22;41079;52.856;6.534;2022-09-30T17:48:27;12.80;99.90
55207;DHT22;41079;52.856;6.534;2022-09-30T17:50:53;12.70;99.90
55207;DHT22;41079;52.856;6.534;2022-09-30T17:53:20;12.70;99.90
55207;DHT22;41079;52.856;6.534;2022-09-30T17:55:47;12.70;99.90
55207;DHT22;41079;52.856;6.534;2022-09-30T17:58:15;12.60;99.90
55207;DHT22;41079;52.856;6.534;2022-09-30T18:00:41;12.60;99.90
55207;DHT22;41079;52.856;6.534;2022-09-30T18:03:07;12.60;99.90
55207;DHT22;41079;52.856;6.534;2022-09-30T18:05:34;12.60;99.90
55207;DHT22;41079;52.856;6.534;2022-09-30T18:08:00;12.50;99.90
55207;DHT22;41079;52.856;6.534;2022-09-30T18:10:26;12.50;99.90
55207;DHT22;41079;52.856;6.534;2022-09-30T18:12:52;12.40;99.90
55207;DHT22;41079;52.856;6.534;2022-09-30T18:15:20;12.40;99.90
55207;DHT22;41079;52.856;6.534;2022-09-30T18:17:46;12.30;99.90
55207;DHT22;41079;52.856;6.534;2022-09-30T18:20:13;12.30;99.90
55207;DHT22;41079;52.856;6.534;2022-09-30T18:22:39;12.30;99.90
55207;DHT22;41079;52.856;6.534;2022-09-30T18:25:05;12.20;99.90
55207;DHT22;41079;52.856;6.534;2022-09-30T18:27:52;12.20;99.90
55207;DHT22;41079;52.856;6.534;2022-09-30T18:30:20;12.20;99.90
55207;DHT22;41079;52.856;6.534;2022-09-30T18:32:50;12.20;99.90
55207;DHT22;41079;52.856;6.534;2022-09-30T18:35:18;12.10;99.90
55207;DHT22;41079;52.856;6.534;2022-09-30T18:37:45;12.00;99.90
55207;DHT22;41079;52.856;6.534;2022-09-30T18:40:14;12.00;99.90
55207;DHT22;41079;52.856;6.534;2022-09-30T18:42:42;12.10;99.90
55207;DHT22;41079;52.856;6.534;2022-09-30T18:45:08;12.00;99.90
55207;DHT22;41079;52.856;6.534;2022-09-30T18:47:36;12.00;99.90
55207;DHT22;41079;52.856;6.534;2022-09-30T18:50:02;12.00;99.90
55207;DHT22;41079;52.856;6.534;2022-09-30T18:52:28;12.10;99.90
55207;DHT22;41079;52.856;6.534;2022-09-30T18:54:53;12.10;99.90
55207;DHT22;41079;52.856;6.534;2022-09-30T18:57:19;12.00;99.90
55207;DHT22;41079;52.856;6.534;2022-09-30T18:59:44;12.10;99.90
55207;DHT22;41079;52.856;6.534;2022-09-30T19:02:13;12.20;99.90
55207;DHT22;41079;52.856;6.534;2022-09-30T19:04:39;12.20;99.90
55207;DHT22;41079;52.856;6.534;2022-09-30T19:07:04;12.20;99.90
55207;DHT22;41079;52.856;6.534;2022-09-30T19:09:30;12.20;99.90
55207;DHT22;41079;52.856;6.534;2022-09-30T19:11:55;12.10;99.90
55207;DHT22;41079;52.856;6.534;2022-09-30T19:14:21;12.10;99.90
55207;DHT22;41079;52.856;6.534;2022-09-30T19:16:48;12.10;99.90
55207;DHT22;41079;52.856;6.534;2022-09-30T19:19:15;12.20;99.90
55207;DHT22;41079;52.856;6.534;2022-09-30T19:21:42;12.20;99.90
55207;DHT22;41079;52.856;6.534;2022-09-30T19:24:09;12.20;99.90
55207;DHT22;41079;52.856;6.534;2022-09-30T19:26:36;12.20;99.90
55207;DHT22;41079;52.856;6.534;2022-09-30T19:29:04;12.10;99.90